sensor_id;sensor_type;location;lat;lon;timestamp;temperature;humidity
50969;DHT22;36982;51.474;7.228;2024-03-25T00:01:54;6.10;79.60
50969;DHT22;36982;51.474;7.228;2024-03-25T00:04:20;6.10;79.00
50969;DHT22;36982;51.474;7.228;2024-03-25T00:06:48;6.10;76.60
50969;DHT22;36982;51.474;7.228;2024-03-25T00:09:14;6.10;77.40
50969;DHT22;36982;51.474;7.228;2024-03-25T00:11:43;6.20;77.60
50969;DHT22;36982;51.474;7.228;2024-03-25T00:14:08;6.20;79.80
50969;DHT22;36982;51.474;7.228;2024-03-25T00:16:34;6.00;83.10
50969;DHT22;36982;51.474;7.228;2024-03-25T00:19:00;6.10;83.50
50969;DHT22;36982;51.474;7.228;2024-03-25T00:21:26;6.10;82.50
50969;DHT22;36982;51.474;7.228;2024-03-25T00:23:52;6.10;82.00
50969;DHT22;36982;51.474;7.228;2024-03-25T00:26:18;6.10;81.40
50969;DHT22;36982;51.474;7.228;2024-03-25T00:28:43;6.00;78.30
50969;DHT22;36982;51.474;7.228;2024-03-25T00:31:09;6.00;82.00
50969;DHT22;36982;51.474;7.228;2024-03-25T00:33:35;5.90;80.50
50969;DHT22;36982;51.474;7.228;2024-03-25T00:36:00;5.90;86.20
50969;DHT22;36982;51.474;7.228;2024-03-25T00:38:26;6.00;82.30
50969;DHT22;36982;51.474;7.228;2024-03-25T00:40:52;6.00;80.10
50969;DHT22;36982;51.474;7.228;2024-03-25T00:43:18;6.10;78.80
50969;DHT22;36982;51.474;7.228;2024-03-25T00:45:43;6.10;80.80
50969;DHT22;36982;51.474;7.228;2024-03-25T00:48:09;6.20;81.20
50969;DHT22;36982;51.474;7.228;2024-03-25T00:50:35;6.00;80.50
50969;DHT22;36982;51.474;7.228;2024-03-25T00:53:00;6.00;81.40
50969;DHT22;36982;51.474;7.228;2024-03-25T00:55:26;5.90;80.40
50969;DHT22;36982;51.474;7.228;2024-03-25T00:57:52;6.00;81.70
50969;DHT22;36982;51.474;7.228;2024-03-25T01:00:18;5.90;81.50
50969;DHT22;36982;51.474;7.228;2024-03-25T01:02:43;5.90;80.00
50969;DHT22;36982;51.474;7.228;2024-03-25T01:05:09;6.00;77.90
50969;DHT22;36982;51.474;7.228;2024-03-25T01:07:35;6.00;75.40
50969;DHT22;36982;51.474;7.228;2024-03-25T01:10:01;6.00;73.90
50969;DHT22;36982;51.474;7.228;2024-03-25T01:12:27;5.90;75.40
50969;DHT22;36982;51.474;7.228;2024-03-25T01:14:53;5.90;79.00
50969;DHT22;36982;51.474;7.228;2024-03-25T01:17:19;5.90;76.00
50969;DHT22;36982;51.474;7.228;2024-03-25T01:19:45;5.90;76.00
50969;DHT22;36982;51.474;7.228;2024-03-25T01:22:10;6.00;74.90
50969;DHT22;36982;51.474;7.228;2024-03-25T01:24:36;6.00;74.30
50969;DHT22;36982;51.474;7.228;2024-03-25T01:27:02;5.90;76.30
50969;DHT22;36982;51.474;7.228;2024-03-25T01:29:27;5.90;75.00
50969;DHT22;36982;51.474;7.228;2024-03-25T01:31:53;5.90;74.10
50969;DHT22;36982;51.474;7.228;2024-03-25T01:34:19;5.80;78.00
50969;DHT22;36982;51.474;7.228;2024-03-25T01:36:45;5.80;77.20
50969;DHT22;36982;51.474;7.228;2024-03-25T01:39:10;5.90;78.00
50969;DHT22;36982;51.474;7.228;2024-03-25T01:41:36;5.80;80.00
50969;DHT22;36982;51.474;7.228;2024-03-25T01:44:01;5.90;81.90
50969;DHT22;36982;51.474;7.228;2024-03-25T01:46:27;6.00;78.70
50969;DHT22;36982;51.474;7.228;2024-03-25T01:48:54;6.00;74.40
50969;DHT22;36982;51.474;7.228;2024-03-25T01:51:23;6.00;77.60
50969;DHT22;36982;51.474;7.228;2024-03-25T01:53:49;6.00;80.00
50969;DHT22;36982;51.474;7.228;2024-03-25T01:56:16;6.00;78.00
50969;DHT22;36982;51.474;7.228;2024-03-25T01:58:42;6.00;75.20
50969;DHT22;36982;51.474;7.228;2024-03-25T02:01:08;6.00;77.60
50969;DHT22;36982;51.474;7.228;2024-03-25T02:03:37;6.00;77.50
50969;DHT22;36982;51.474;7.228;2024-03-25T02:06:07;6.00;75.60
50969;DHT22;36982;51.474;7.228;2024-03-25T02:08:35;6.00;76.20
50969;DHT22;36982;51.474;7.228;2024-03-25T02:11:01;6.00;76.90
50969;DHT22;36982;51.474;7.228;2024-03-25T02:13:27;6.00;78.20
50969;DHT22;36982;51.474;7.228;2024-03-25T02:15:54;5.90;78.30
50969;DHT22;36982;51.474;7.228;2024-03-25T02:18:20;5.90;81.70
50969;DHT22;36982;51.474;7.228;2024-03-25T02:20:46;5.90;82.10
50969;DHT22;36982;51.474;7.228;2024-03-25T02:23:13;6.00;84.20
50969;DHT22;36982;51.474;7.228;2024-03-25T02:25:42;5.80;85.30
50969;DHT22;36982;51.474;7.228;2024-03-25T02:28:08;5.80;86.00
50969;DHT22;36982;51.474;7.228;2024-03-25T02:30:33;5.80;86.80
50969;DHT22;36982;51.474;7.228;2024-03-25T02:32:59;5.80;89.00
50969;DHT22;36982;51.474;7.228;2024-03-25T02:35:26;5.80;89.10
50969;DHT22;36982;51.474;7.228;2024-03-25T02:37:53;5.80;88.10
50969;DHT22;36982;51.474;7.228;2024-03-25T02:40:19;5.80;88.40
50969;DHT22;36982;51.474;7.228;2024-03-25T02:42:46;5.90;88.10
50969;DHT22;36982;51.474;7.228;2024-03-25T02:45:12;5.70;88.50
50969;DHT22;36982;51.474;7.228;2024-03-25T02:47:37;5.70;88.10
50969;DHT22;36982;51.474;7.228;2024-03-25T02:50:03;5.60;90.10
50969;DHT22;36982;51.474;7.228;2024-03-25T02:52:29;5.50;92.30
50969;DHT22;36982;51.474;7.228;2024-03-25T02:54:54;5.50;91.20
50969;DHT22;36982;51.474;7.228;2024-03-25T02:57:20;5.50;93.10
50969;DHT22;36982;51.474;7.228;2024-03-25T02:59:46;5.40;93.00
50969;DHT22;36982;51.474;7.228;2024-03-25T03:02:12;5.40;92.90
50969;DHT22;36982;51.474;7.228;2024-03-25T03:04:37;5.30;91.60
50969;DHT22;36982;51.474;7.228;2024-03-25T03:07:03;5.30;92.60
50969;DHT22;36982;51.474;7.228;2024-03-25T03:09:29;5.30;92.60
50969;DHT22;36982;51.474;7.228;2024-03-25T03:11:54;5.10;93.90
50969;DHT22;36982;51.474;7.228;2024-03-25T03:14:20;5.10;95.20
50969;DHT22;36982;51.474;7.228;2024-03-25T03:16:46;5.10;96.70
50969;DHT22;36982;51.474;7.228;2024-03-25T03:19:11;5.10;95.90
50969;DHT22;36982;51.474;7.228;2024-03-25T03:21:37;5.10;96.50
50969;DHT22;36982;51.474;7.228;2024-03-25T03:24:03;5.00;96.80
50969;DHT22;36982;51.474;7.228;2024-03-25T03:26:29;5.00;98.10
50969;DHT22;36982;51.474;7.228;2024-03-25T03:28:55;5.10;97.30
50969;DHT22;36982;51.474;7.228;2024-03-25T03:31:21;5.10;97.10
50969;DHT22;36982;51.474;7.228;2024-03-25T03:33:47;5.00;98.20
50969;DHT22;36982;51.474;7.228;2024-03-25T03:36:18;5.10;97.80
50969;DHT22;36982;51.474;7.228;2024-03-25T03:38:44;5.10;97.80
50969;DHT22;36982;51.474;7.228;2024-03-25T03:41:10;5.10;96.60
50969;DHT22;36982;51.474;7.228;2024-03-25T03:43:35;5.00;97.00
50969;DHT22;36982;51.474;7.228;2024-03-25T03:46:01;5.00;98.20
50969;DHT22;36982;51.474;7.228;2024-03-25T03:48:28;4.90;98.60
50969;DHT22;36982;51.474;7.228;2024-03-25T03:50:53;5.00;98.70
50969;DHT22;36982;51.474;7.228;2024-03-25T03:53:19;5.00;98.30
50969;DHT22;36982;51.474;7.228;2024-03-25T03:55:57;4.90;99.20
50969;DHT22;36982;51.474;7.228;2024-03-25T03:58:24;4.90;99.40
50969;DHT22;36982;51.474;7.228;2024-03-25T04:00:50;4.90;98.70
50969;DHT22;36982;51.474;7.228;2024-03-25T04:03:16;5.00;99.30
50969;DHT22;36982;51.474;7.228;2024-03-25T04:05:42;5.00;99.00
50969;DHT22;36982;51.474;7.228;2024-03-25T04:08:07;4.90;98.10
50969;DHT22;36982;51.474;7.228;2024-03-25T04:10:34;4.90;98.00
50969;DHT22;36982;51.474;7.228;2024-03-25T04:12:59;4.70;98.60
50969;DHT22;36982;51.474;7.228;2024-03-25T04:15:25;4.70;99.90
50969;DHT22;36982;51.474;7.228;2024-03-25T04:17:52;4.70;99.70
50969;DHT22;36982;51.474;7.228;2024-03-25T04:20:17;4.70;99.90
50969;DHT22;36982;51.474;7.228;2024-03-25T04:22:46;4.50;99.90
50969;DHT22;36982;51.474;7.228;2024-03-25T04:25:13;4.30;99.90
50969;DHT22;36982;51.474;7.228;2024-03-25T04:27:42;4.40;99.90
50969;DHT22;36982;51.474;7.228;2024-03-25T04:30:09;4.50;99.90
50969;DHT22;36982;51.474;7.228;2024-03-25T04:32:35;4.40;99.90
50969;DHT22;36982;51.474;7.228;2024-03-25T04:35:01;4.40;99.90
50969;DHT22;36982;51.474;7.228;2024-03-25T04:37:27;4.30;99.90
50969;DHT22;36982;51.474;7.228;2024-03-25T04:39:56;4.40;99.90
50969;DHT22;36982;51.474;7.228;2024-03-25T04:42:22;4.40;99.90
50969;DHT22;36982;51.474;7.228;2024-03-25T04:44:48;4.40;99.90
50969;DHT22;36982;51.474;7.228;2024-03-25T04:47:14;4.40;99.90
50969;DHT22;36982;51.474;7.228;2024-03-25T04:49:41;4.30;99.90
50969;DHT22;36982;51.474;7.228;2024-03-25T04:52:07;4.20;99.90
50969;DHT22;36982;51.474;7.228;2024-03-25T04:54:32;4.20;99.90
50969;DHT22;36982;51.474;7.228;2024-03-25T04:56:58;4.20;99.90
50969;DHT22;36982;51.474;7.228;2024-03-25T04:59:23;4.20;99.90
50969;DHT22;36982;51.474;7.228;2024-03-25T05:01:49;4.10;99.90
50969;DHT22;36982;51.474;7.228;2024-03-25T05:04:15;4.10;99.90
50969;DHT22;36982;51.474;7.228;2024-03-25T05:06:41;4.10;99.90
50969;DHT22;36982;51.474;7.228;2024-03-25T05:09:06;4.00;99.90
50969;DHT22;36982;51.474;7.228;2024-03-25T05:11:32;4.10;99.90
50969;DHT22;36982;51.474;7.228;2024-03-25T05:13:59;4.10;99.90
50969;DHT22;36982;51.474;7.228;2024-03-25T05:16:24;4.10;99.90
50969;DHT22;36982;51.474;7.228;2024-03-25T05:18:50;4.10;99.90
50969;DHT22;36982;51.474;7.228;2024-03-25T05:21:15;4.10;99.90
50969;DHT22;36982;51.474;7.228;2024-03-25T05:23:41;4.10;99.90
50969;DHT22;36982;51.474;7.228;2024-03-25T05:26:08;4.10;99.90
50969;DHT22;36982;51.474;7.228;2024-03-25T05:28:33;4.10;99.90
50969;DHT22;36982;51.474;7.228;2024-03-25T05:31:08;4.10;99.90
50969;DHT22;36982;51.474;7.228;2024-03-25T05:33:33;4.10;99.90
50969;DHT22;36982;51.474;7.228;2024-03-25T05:35:59;4.00;99.90
50969;DHT22;36982;51.474;7.228;2024-03-25T05:38:26;4.20;99.90
50969;DHT22;36982;51.474;7.228;2024-03-25T05:40:52;4.20;99.90
50969;DHT22;36982;51.474;7.228;2024-03-25T05:43:18;4.10;99.90
50969;DHT22;36982;51.474;7.228;2024-03-25T05:45:56;4.10;99.90
50969;DHT22;36982;51.474;7.228;2024-03-25T05:48:26;4.10;99.90
50969;DHT22;36982;51.474;7.228;2024-03-25T05:53:28;4.10;99.90
50969;DHT22;36982;51.474;7.228;2024-03-25T05:55:54;4.10;99.90
50969;DHT22;36982;51.474;7.228;2024-03-25T05:58:19;4.10;99.90
50969;DHT22;36982;51.474;7.228;2024-03-25T06:00:49;4.30;99.90
50969;DHT22;36982;51.474;7.228;2024-03-25T06:03:15;4.20;99.90
50969;DHT22;36982;51.474;7.228;2024-03-25T06:05:42;4.10;99.90
50969;DHT22;36982;51.474;7.228;2024-03-25T06:08:08;4.10;99.90
50969;DHT22;36982;51.474;7.228;2024-03-25T06:10:41;4.20;99.90
50969;DHT22;36982;51.474;7.228;2024-03-25T06:13:07;4.20;99.90
50969;DHT22;36982;51.474;7.228;2024-03-25T06:15:32;4.20;99.90
50969;DHT22;36982;51.474;7.228;2024-03-25T06:17:58;4.20;99.90
50969;DHT22;36982;51.474;7.228;2024-03-25T06:20:24;4.30;99.90
50969;DHT22;36982;51.474;7.228;2024-03-25T06:22:49;4.40;99.90
50969;DHT22;36982;51.474;7.228;2024-03-25T06:25:16;4.50;99.90
50969;DHT22;36982;51.474;7.228;2024-03-25T06:27:42;4.70;99.90
50969;DHT22;36982;51.474;7.228;2024-03-25T06:30:10;4.90;99.90
50969;DHT22;36982;51.474;7.228;2024-03-25T06:32:54;5.00;99.90
50969;DHT22;36982;51.474;7.228;2024-03-25T06:35:38;5.10;99.90
50969;DHT22;36982;51.474;7.228;2024-03-25T06:38:04;5.10;99.90
50969;DHT22;36982;51.474;7.228;2024-03-25T06:40:30;5.10;99.90
50969;DHT22;36982;51.474;7.228;2024-03-25T06:42:56;5.00;99.90
50969;DHT22;36982;51.474;7.228;2024-03-25T06:45:22;5.00;99.90
50969;DHT22;36982;51.474;7.228;2024-03-25T06:47:48;5.00;99.90
50969;DHT22;36982;51.474;7.228;2024-03-25T06:50:14;5.00;99.90
50969;DHT22;36982;51.474;7.228;2024-03-25T06:52:40;5.10;99.90
50969;DHT22;36982;51.474;7.228;2024-03-25T06:55:05;5.20;99.90
50969;DHT22;36982;51.474;7.228;2024-03-25T06:57:31;5.10;99.90
50969;DHT22;36982;51.474;7.228;2024-03-25T06:59:57;5.10;99.90
50969;DHT22;36982;51.474;7.228;2024-03-25T07:02:23;5.20;99.90
50969;DHT22;36982;51.474;7.228;2024-03-25T07:04:49;5.20;99.90
50969;DHT22;36982;51.474;7.228;2024-03-25T07:07:15;5.30;99.90
50969;DHT22;36982;51.474;7.228;2024-03-25T07:09:40;5.30;99.90
50969;DHT22;36982;51.474;7.228;2024-03-25T07:12:06;5.40;99.90
50969;DHT22;36982;51.474;7.228;2024-03-25T07:14:32;5.50;99.90
50969;DHT22;36982;51.474;7.228;2024-03-25T07:16:58;5.50;99.90
50969;DHT22;36982;51.474;7.228;2024-03-25T07:19:24;5.60;99.90
50969;DHT22;36982;51.474;7.228;2024-03-25T07:21:49;5.70;99.90
50969;DHT22;36982;51.474;7.228;2024-03-25T07:24:15;5.70;99.90
50969;DHT22;36982;51.474;7.228;2024-03-25T07:26:41;5.70;99.90
50969;DHT22;36982;51.474;7.228;2024-03-25T07:29:06;5.80;99.90
50969;DHT22;36982;51.474;7.228;2024-03-25T07:31:32;5.70;99.90
50969;DHT22;36982;51.474;7.228;2024-03-25T07:33:58;5.90;99.90
50969;DHT22;36982;51.474;7.228;2024-03-25T07:36:24;5.70;99.90
50969;DHT22;36982;51.474;7.228;2024-03-25T07:38:49;5.90;99.90
50969;DHT22;36982;51.474;7.228;2024-03-25T07:41:15;6.00;99.90
50969;DHT22;36982;51.474;7.228;2024-03-25T07:43:41;6.00;99.90
50969;DHT22;36982;51.474;7.228;2024-03-25T07:46:06;6.00;99.90
50969;DHT22;36982;51.474;7.228;2024-03-25T07:48:32;6.10;99.90
50969;DHT22;36982;51.474;7.228;2024-03-25T07:50:57;6.10;99.90
50969;DHT22;36982;51.474;7.228;2024-03-25T07:53:23;6.20;99.90
50969;DHT22;36982;51.474;7.228;2024-03-25T07:55:49;6.20;99.90
50969;DHT22;36982;51.474;7.228;2024-03-25T07:58:16;6.30;99.90
50969;DHT22;36982;51.474;7.228;2024-03-25T08:00:42;6.30;99.90
50969;DHT22;36982;51.474;7.228;2024-03-25T08:03:07;6.40;99.90
50969;DHT22;36982;51.474;7.228;2024-03-25T08:05:33;6.50;99.90
50969;DHT22;36982;51.474;7.228;2024-03-25T08:07:59;6.60;99.90
50969;DHT22;36982;51.474;7.228;2024-03-25T08:10:24;6.60;99.90
50969;DHT22;36982;51.474;7.228;2024-03-25T08:12:50;6.70;98.10
50969;DHT22;36982;51.474;7.228;2024-03-25T08:15:16;6.70;98.40
50969;DHT22;36982;51.474;7.228;2024-03-25T08:17:42;7.00;98.50
50969;DHT22;36982;51.474;7.228;2024-03-25T08:20:08;7.10;98.20
50969;DHT22;36982;51.474;7.228;2024-03-25T08:22:34;7.30;96.90
50969;DHT22;36982;51.474;7.228;2024-03-25T08:24:59;7.50;96.30
50969;DHT22;36982;51.474;7.228;2024-03-25T08:27:25;7.70;93.80
50969;DHT22;36982;51.474;7.228;2024-03-25T08:29:51;7.90;93.40
50969;DHT22;36982;51.474;7.228;2024-03-25T08:32:18;8.00;91.10
50969;DHT22;36982;51.474;7.228;2024-03-25T08:34:44;8.10;90.90
50969;DHT22;36982;51.474;7.228;2024-03-25T08:37:10;8.40;88.00
50969;DHT22;36982;51.474;7.228;2024-03-25T08:39:36;8.60;80.70
50969;DHT22;36982;51.474;7.228;2024-03-25T08:42:02;8.60;79.60
50969;DHT22;36982;51.474;7.228;2024-03-25T08:44:28;8.70;82.80
50969;DHT22;36982;51.474;7.228;2024-03-25T08:46:53;8.80;79.30
50969;DHT22;36982;51.474;7.228;2024-03-25T08:49:19;8.60;58.60
50969;DHT22;36982;51.474;7.228;2024-03-25T08:51:45;8.70;1.00
50969;DHT22;36982;51.474;7.228;2024-03-25T08:54:11;8.70;1.00
50969;DHT22;36982;51.474;7.228;2024-03-25T08:56:37;8.60;1.00
50969;DHT22;36982;51.474;7.228;2024-03-25T08:59:02;8.70;1.00
50969;DHT22;36982;51.474;7.228;2024-03-25T09:01:28;8.80;1.00
50969;DHT22;36982;51.474;7.228;2024-03-25T09:03:56;8.80;1.00
50969;DHT22;36982;51.474;7.228;2024-03-25T09:06:21;8.80;1.00
50969;DHT22;36982;51.474;7.228;2024-03-25T09:08:47;9.00;1.00
50969;DHT22;36982;51.474;7.228;2024-03-25T09:11:35;9.10;1.00
50969;DHT22;36982;51.474;7.228;2024-03-25T09:14:01;9.10;1.00
50969;DHT22;36982;51.474;7.228;2024-03-25T09:16:29;9.20;1.00
50969;DHT22;36982;51.474;7.228;2024-03-25T09:18:55;9.10;1.00
50969;DHT22;36982;51.474;7.228;2024-03-25T09:21:21;8.80;1.00
50969;DHT22;36982;51.474;7.228;2024-03-25T09:23:47;8.80;1.00
50969;DHT22;36982;51.474;7.228;2024-03-25T09:26:13;8.70;1.00
50969;DHT22;36982;51.474;7.228;2024-03-25T09:28:39;8.70;1.00
50969;DHT22;36982;51.474;7.228;2024-03-25T09:31:05;8.70;1.00
50969;DHT22;36982;51.474;7.228;2024-03-25T09:33:41;8.90;1.00
50969;DHT22;36982;51.474;7.228;2024-03-25T09:36:06;8.80;1.00
50969;DHT22;36982;51.474;7.228;2024-03-25T09:38:32;8.80;1.00
50969;DHT22;36982;51.474;7.228;2024-03-25T09:40:58;8.80;1.00
50969;DHT22;36982;51.474;7.228;2024-03-25T09:43:27;8.70;1.00
50969;DHT22;36982;51.474;7.228;2024-03-25T09:45:57;8.70;1.00
50969;DHT22;36982;51.474;7.228;2024-03-25T09:48:24;8.60;1.00
50969;DHT22;36982;51.474;7.228;2024-03-25T09:50:52;8.60;1.00
50969;DHT22;36982;51.474;7.228;2024-03-25T09:53:18;8.60;1.00
50969;DHT22;36982;51.474;7.228;2024-03-25T09:55:46;8.80;1.00
50969;DHT22;36982;51.474;7.228;2024-03-25T09:58:15;8.90;1.00
50969;DHT22;36982;51.474;7.228;2024-03-25T10:00:42;9.20;1.00
50969;DHT22;36982;51.474;7.228;2024-03-25T10:03:07;9.40;99.90
50969;DHT22;36982;51.474;7.228;2024-03-25T10:05:34;9.70;99.90
50969;DHT22;36982;51.474;7.228;2024-03-25T10:08:00;9.80;99.90
50969;DHT22;36982;51.474;7.228;2024-03-25T10:10:26;10.10;99.90
50969;DHT22;36982;51.474;7.228;2024-03-25T10:12:51;10.30;99.90
50969;DHT22;36982;51.474;7.228;2024-03-25T10:15:20;10.40;67.90
50969;DHT22;36982;51.474;7.228;2024-03-25T10:17:49;10.20;64.80
50969;DHT22;36982;51.474;7.228;2024-03-25T10:20:15;10.10;44.90
50969;DHT22;36982;51.474;7.228;2024-03-25T10:22:44;9.70;96.80
50969;DHT22;36982;51.474;7.228;2024-03-25T10:27:58;9.10;99.90
50969;DHT22;36982;51.474;7.228;2024-03-25T10:30:25;9.10;99.90
50969;DHT22;36982;51.474;7.228;2024-03-25T10:33:04;9.00;99.90
50969;DHT22;36982;51.474;7.228;2024-03-25T10:35:32;9.10;99.90
50969;DHT22;36982;51.474;7.228;2024-03-25T10:38:09;9.10;99.90
50969;DHT22;36982;51.474;7.228;2024-03-25T10:40:37;9.30;99.90
50969;DHT22;36982;51.474;7.228;2024-03-25T10:43:08;9.40;99.90
50969;DHT22;36982;51.474;7.228;2024-03-25T10:45:36;9.60;99.90
50969;DHT22;36982;51.474;7.228;2024-03-25T10:48:07;9.80;99.90
50969;DHT22;36982;51.474;7.228;2024-03-25T10:50:35;9.80;97.60
50969;DHT22;36982;51.474;7.228;2024-03-25T10:53:02;9.80;53.60
50969;DHT22;36982;51.474;7.228;2024-03-25T10:55:31;10.00;1.00
50969;DHT22;36982;51.474;7.228;2024-03-25T10:58:00;10.00;1.00
50969;DHT22;36982;51.474;7.228;2024-03-25T11:00:26;9.90;55.40
50969;DHT22;36982;51.474;7.228;2024-03-25T11:02:52;9.90;62.30
50969;DHT22;36982;51.474;7.228;2024-03-25T11:05:18;10.00;99.90
50969;DHT22;36982;51.474;7.228;2024-03-25T11:07:44;10.10;99.90
50969;DHT22;36982;51.474;7.228;2024-03-25T11:10:11;10.30;48.30
50969;DHT22;36982;51.474;7.228;2024-03-25T11:12:38;10.40;99.90
50969;DHT22;36982;51.474;7.228;2024-03-25T11:15:06;10.50;99.90
50969;DHT22;36982;51.474;7.228;2024-03-25T11:17:33;10.80;99.90
50969;DHT22;36982;51.474;7.228;2024-03-25T11:20:12;11.10;40.70
50969;DHT22;36982;51.474;7.228;2024-03-25T11:22:49;11.30;99.90
50969;DHT22;36982;51.474;7.228;2024-03-25T11:25:14;11.20;99.90
50969;DHT22;36982;51.474;7.228;2024-03-25T11:27:43;11.00;99.90
50969;DHT22;36982;51.474;7.228;2024-03-25T11:30:13;11.10;1.00
50969;DHT22;36982;51.474;7.228;2024-03-25T11:32:49;11.00;99.90
50969;DHT22;36982;51.474;7.228;2024-03-25T11:35:16;10.70;99.90
50969;DHT22;36982;51.474;7.228;2024-03-25T11:37:42;10.50;99.90
50969;DHT22;36982;51.474;7.228;2024-03-25T11:40:09;10.40;1.00
50969;DHT22;36982;51.474;7.228;2024-03-25T11:42:38;10.20;99.90
50969;DHT22;36982;51.474;7.228;2024-03-25T11:45:06;10.30;99.90
50969;DHT22;36982;51.474;7.228;2024-03-25T11:47:32;10.40;1.00
50969;DHT22;36982;51.474;7.228;2024-03-25T11:50:00;10.50;1.00
50969;DHT22;36982;51.474;7.228;2024-03-25T11:52:31;10.40;1.00
50969;DHT22;36982;51.474;7.228;2024-03-25T11:54:57;10.10;99.90
50969;DHT22;36982;51.474;7.228;2024-03-25T11:57:22;10.00;1.00
50969;DHT22;36982;51.474;7.228;2024-03-25T11:59:48;10.10;99.90
50969;DHT22;36982;51.474;7.228;2024-03-25T12:02:18;10.20;99.90
50969;DHT22;36982;51.474;7.228;2024-03-25T12:04:44;10.30;1.00
50969;DHT22;36982;51.474;7.228;2024-03-25T12:07:14;10.40;99.90
50969;DHT22;36982;51.474;7.228;2024-03-25T12:09:40;10.40;99.90
50969;DHT22;36982;51.474;7.228;2024-03-25T12:12:28;10.50;1.00
50969;DHT22;36982;51.474;7.228;2024-03-25T12:14:54;10.40;1.00
50969;DHT22;36982;51.474;7.228;2024-03-25T12:17:21;10.50;1.00
50969;DHT22;36982;51.474;7.228;2024-03-25T12:20:03;10.60;99.90
50969;DHT22;36982;51.474;7.228;2024-03-25T12:22:30;10.80;1.00
50969;DHT22;36982;51.474;7.228;2024-03-25T12:25:00;10.70;1.00
50969;DHT22;36982;51.474;7.228;2024-03-25T12:27:28;10.50;99.90
50969;DHT22;36982;51.474;7.228;2024-03-25T12:30:08;10.50;1.00
50969;DHT22;36982;51.474;7.228;2024-03-25T12:34:59;10.60;1.00
50969;DHT22;36982;51.474;7.228;2024-03-25T12:37:28;10.70;99.90
50969;DHT22;36982;51.474;7.228;2024-03-25T12:39:54;10.80;43.00
50969;DHT22;36982;51.474;7.228;2024-03-25T12:42:19;11.00;99.90
50969;DHT22;36982;51.474;7.228;2024-03-25T12:44:45;11.10;99.90
50969;DHT22;36982;51.474;7.228;2024-03-25T12:47:11;11.40;51.10
50969;DHT22;36982;51.474;7.228;2024-03-25T12:49:36;11.60;99.90
50969;DHT22;36982;51.474;7.228;2024-03-25T12:52:05;11.70;99.90
50969;DHT22;36982;51.474;7.228;2024-03-25T12:54:31;11.80;99.90
50969;DHT22;36982;51.474;7.228;2024-03-25T12:56:57;11.80;99.90
50969;DHT22;36982;51.474;7.228;2024-03-25T12:59:22;12.00;99.90
50969;DHT22;36982;51.474;7.228;2024-03-25T13:01:48;12.20;99.90
50969;DHT22;36982;51.474;7.228;2024-03-25T13:04:14;12.20;99.90
50969;DHT22;36982;51.474;7.228;2024-03-25T13:06:39;12.00;99.90
50969;DHT22;36982;51.474;7.228;2024-03-25T13:09:05;12.20;99.90
50969;DHT22;36982;51.474;7.228;2024-03-25T13:11:30;12.10;99.90
50969;DHT22;36982;51.474;7.228;2024-03-25T13:13:56;12.20;99.90
50969;DHT22;36982;51.474;7.228;2024-03-25T13:16:22;12.20;99.90
50969;DHT22;36982;51.474;7.228;2024-03-25T13:18:47;12.40;99.90
50969;DHT22;36982;51.474;7.228;2024-03-25T13:21:13;12.50;99.90
50969;DHT22;36982;51.474;7.228;2024-03-25T13:23:38;12.60;99.90
50969;DHT22;36982;51.474;7.228;2024-03-25T13:26:04;12.70;93.40
50969;DHT22;36982;51.474;7.228;2024-03-25T13:28:30;12.60;99.90
50969;DHT22;36982;51.474;7.228;2024-03-25T13:30:55;12.60;99.90
50969;DHT22;36982;51.474;7.228;2024-03-25T13:33:21;12.50;92.60
50969;DHT22;36982;51.474;7.228;2024-03-25T13:35:46;12.60;64.20
50969;DHT22;36982;51.474;7.228;2024-03-25T13:38:12;12.50;99.90
50969;DHT22;36982;51.474;7.228;2024-03-25T13:40:38;12.50;99.90
50969;DHT22;36982;51.474;7.228;2024-03-25T13:43:03;12.50;99.90
50969;DHT22;36982;51.474;7.228;2024-03-25T13:45:30;12.50;85.60
50969;DHT22;36982;51.474;7.228;2024-03-25T13:47:56;12.70;90.20
50969;DHT22;36982;51.474;7.228;2024-03-25T13:50:21;12.70;99.90
50969;DHT22;36982;51.474;7.228;2024-03-25T13:52:48;12.50;99.90
50969;DHT22;36982;51.474;7.228;2024-03-25T13:55:13;12.30;64.00
50969;DHT22;36982;51.474;7.228;2024-03-25T13:57:39;12.20;99.90
50969;DHT22;36982;51.474;7.228;2024-03-25T14:00:05;12.00;99.90
50969;DHT22;36982;51.474;7.228;2024-03-25T14:02:33;11.90;99.90
50969;DHT22;36982;51.474;7.228;2024-03-25T14:05:01;11.80;99.90
50969;DHT22;36982;51.474;7.228;2024-03-25T14:07:27;11.70;99.90
50969;DHT22;36982;51.474;7.228;2024-03-25T14:09:52;11.20;74.80
50969;DHT22;36982;51.474;7.228;2024-03-25T14:12:18;11.10;28.70
50969;DHT22;36982;51.474;7.228;2024-03-25T14:14:44;11.00;1.00
50969;DHT22;36982;51.474;7.228;2024-03-25T14:17:09;10.90;26.40
50969;DHT22;36982;51.474;7.228;2024-03-25T14:19:35;10.90;99.90
50969;DHT22;36982;51.474;7.228;2024-03-25T14:24:28;11.00;99.90
50969;DHT22;36982;51.474;7.228;2024-03-25T14:26:54;11.00;99.90
50969;DHT22;36982;51.474;7.228;2024-03-25T14:29:20;11.10;99.90
50969;DHT22;36982;51.474;7.228;2024-03-25T14:31:45;11.10;99.90
50969;DHT22;36982;51.474;7.228;2024-03-25T14:34:11;11.10;1.00
50969;DHT22;36982;51.474;7.228;2024-03-25T14:36:36;11.00;1.00
50969;DHT22;36982;51.474;7.228;2024-03-25T14:39:02;10.90;1.00
50969;DHT22;36982;51.474;7.228;2024-03-25T14:41:38;10.80;10.60
50969;DHT22;36982;51.474;7.228;2024-03-25T14:44:04;10.90;39.10
50969;DHT22;36982;51.474;7.228;2024-03-25T14:46:30;11.00;53.50
50969;DHT22;36982;51.474;7.228;2024-03-25T14:48:55;10.90;1.00
50969;DHT22;36982;51.474;7.228;2024-03-25T14:51:21;10.90;1.00
50969;DHT22;36982;51.474;7.228;2024-03-25T14:53:46;11.00;23.50
50969;DHT22;36982;51.474;7.228;2024-03-25T14:56:12;11.00;1.00
50969;DHT22;36982;51.474;7.228;2024-03-25T14:58:38;11.00;1.00
50969;DHT22;36982;51.474;7.228;2024-03-25T15:01:05;10.90;1.00
50969;DHT22;36982;51.474;7.228;2024-03-25T15:03:31;11.00;1.00
50969;DHT22;36982;51.474;7.228;2024-03-25T15:05:56;11.00;1.00
50969;DHT22;36982;51.474;7.228;2024-03-25T15:08:22;11.00;1.00
50969;DHT22;36982;51.474;7.228;2024-03-25T15:10:48;11.00;1.00
50969;DHT22;36982;51.474;7.228;2024-03-25T15:13:14;11.00;1.00
50969;DHT22;36982;51.474;7.228;2024-03-25T15:15:40;11.00;1.00
50969;DHT22;36982;51.474;7.228;2024-03-25T15:18:07;11.00;1.00
50969;DHT22;36982;51.474;7.228;2024-03-25T15:20:33;10.90;1.00
50969;DHT22;36982;51.474;7.228;2024-03-25T15:22:59;10.90;1.00
50969;DHT22;36982;51.474;7.228;2024-03-25T15:25:25;11.00;1.00
50969;DHT22;36982;51.474;7.228;2024-03-25T15:27:51;11.00;1.00
50969;DHT22;36982;51.474;7.228;2024-03-25T15:30:16;11.10;1.00
50969;DHT22;36982;51.474;7.228;2024-03-25T15:32:42;11.00;8.20
50969;DHT22;36982;51.474;7.228;2024-03-25T15:35:08;10.80;1.00
50969;DHT22;36982;51.474;7.228;2024-03-25T15:37:34;10.90;1.00
50969;DHT22;36982;51.474;7.228;2024-03-25T15:39:59;10.80;1.00
50969;DHT22;36982;51.474;7.228;2024-03-25T15:42:25;10.70;1.00
50969;DHT22;36982;51.474;7.228;2024-03-25T15:44:51;10.60;99.90
50969;DHT22;36982;51.474;7.228;2024-03-25T15:47:19;10.70;99.90
50969;DHT22;36982;51.474;7.228;2024-03-25T15:49:47;10.60;99.90
50969;DHT22;36982;51.474;7.228;2024-03-25T15:52:13;10.70;99.90